Tiempo atmosférico en la estación meteorológica de Barco De Avila, Ávila (1012 m.)



Fecha
DESCASC
Temp. máxima en grados centígrados (hora)
DESCASC
Temp. mínima en grados centígrados (hora)
DESCASC
Temp. media en grados centígrados
DESCASC
Racha de viento máxima en m/sg (hora)
DESCASC
Velocidad máxima media en intervalos de 10 minutos(hora)
DESCASC
Precipitaciones diarias en mm
DESCASC
Precipitaciones de 00:00 a 06:00 en mm
DESCASC
Precipitaciones de 06:00 a 12:00 en mm
DESCASC
Precipitaciones de 12:00 a 18:00 en mm
DESCASC
Precipitaciones de 18:00 a 24:00 en mm
DESCASC
20-09-2020 19.6 (15:20) 13.6 (00:20) 16.6 11.39 (13:20) 7.5 (13:20) 0 0 0 0 0
19-09-2020 15.3 (13:00) 12.3 (00:00) 13.8 14.17 (04:40) 7.78 (05:50) 13 7.6 4.8 0.6 0
18-09-2020 19.2 (13:30) 12 (22:40) 15.6 13.33 (03:30) 7.78 (19:00) 16 4 1 0.6 10.4
17-09-2020 21.5 (13:30) 15.3 (00:00) 18.4 15.56 (19:40) 9.17 (14:40) 2.4 0 0 0 2.4
16-09-2020 27.2 (16:10) 8.1 (00:00) 17.7 7.78 (13:00) 5 (17:20) 0 0 0 0 0
15-09-2020 25.2 (15:30) 9.7 (00:00) 17.5 8.61 (15:10) 5.28 (15:00) 1 0.4 0.4 0.2 0
14-09-2020 26.9 (16:40) 15 (00:00) 20.9 12.22 (20:30) 7.78 (12:00) 1 0 0 0 1
13-09-2020 30.9 (15:20) 12.3 (00:00) 21.6 8.89 (18:50) 6.11 (18:30) 0 0 0 0 0
12-09-2020 31.3 (16:00) 10.4 (00:00) 20.8 8.06 (17:00) 4.44 (07:50) 0 0 0 0 0
11-09-2020 29.1 (17:10) 9.1 (00:00) 19.1 8.89 (15:10) 4.72 (03:20) 0 0 0 0 0
10-09-2020 28.1 (17:10) 7.4 (00:00) 17.8 7.5 (14:40) 4.44 (05:00) 0 0 0 0 0
09-09-2020 27.7 (17:10) 7.3 (00:00) 17.5 8.33 (16:30) 4.44 (09:30) 0 0 0 0 0
08-09-2020 26 (18:10) 2.9 (00:00) 14.5 6.39 (16:10) 4.17 (23:59) 0 0 0 0 0
07-09-2020 25.3 (16:30) 6.5 (08:00) 15.9 8.61 (18:10) 4.72 (17:20) 0 0 0 0 0
06-09-2020 29.8 (15:50) 10.4 (00:00) 20.1 8.06 (06:20) 5.28 (07:40) 0 0 0 0 0
05-09-2020 31.6 (16:30) 9.8 (00:00) 20.7 7.5 (15:50) 4.72 (19:20) 0 0 0 0 0
04-09-2020 32 (15:50) 10.2 (00:00) 21.1 8.06 (17:00) 5 (18:40) 0 0 0 0 0
03-09-2020 30.6 (18:20) 7.4 (00:00) 19 6.67 (16:10) 4.17 (05:20) 0 0 0 0 0
02-09-2020 27.8 (17:10) 5.2 (00:00) 16.5 7.22 (17:50) 3.61 (04:00) 0 0 0 0 0
01-09-2020 25.8 (15:30) 8.6 (00:00) 17.2 8.06 (15:40) 3.89 (02:10) 0 0 0 0 0
31-08-2020 24.3 (17:20) 3.6 (00:00) 13.9 6.94 (09:00) 4.72 (03:40) 0 0 0 0 0
30-08-2020 20.8 (15:50) 3.6 (00:00) 12.2 8.06 (18:00) 3.61 (15:00) 0 0 0 0 0
29-08-2020 20 (18:00) 9.1 (00:00) 14.6 9.17 (18:10) 4.44 (18:10) 0 0 0 0 0
28-08-2020 26.7 (17:50) 11.9 (00:00) 19.3 10.28 (17:10) 5.56 (17:20) 0 0 0 0 0
27-08-2020 33.2 (17:10) 10.9 (00:00) 22.1 8.06 (20:30) 4.17 (20:30) 0 0 0 0 0
26-08-2020 33.5 (16:50) 10.5 (00:00) 22 7.78 (18:20) 4.17 (06:30) 0 0 0 0 0
25-08-2020 32.3 (16:30) 10.5 (00:00) 21.4 9.72 (14:00) 6.11 (13:00) 0 0 0 0 0
24-08-2020 31.7 (18:20) 8.3 (00:00) 20 7.22 (15:30) 4.44 (07:40) 0 0 0 0 0

Gráficas

Temp. máximas Temp. mínimas Temp. medias Precipitaciones Rachas de viento máximas Velocidades máximas media en intervalos de 10 minutos

Datos horarios

Fecha y hora oficial Temperatura (ºC) Velocidad del viento (km/h) Dirección del viento Racha (km/h) Dirección de racha Precipitación (mm) Presión (hPa) Tendencia (hPa) Humedad (%)
2020-09-22 23:00:00 14.1 6 Sudoeste 14 Sudoeste 0 -- -- 75
2020-09-22 22:00:00 14.4 5 Sudoeste 16 Oeste 0 -- -- 76
2020-09-22 21:00:00 15.9 12 Oeste 23 Oeste 0 -- -- 70
2020-09-22 20:00:00 17.4 15 Oeste 27 Oeste 0 -- -- 63
2020-09-22 19:00:00 19.3 17 Oeste 30 Oeste 0 -- -- 58
2020-09-22 18:00:00 19.8 15 Oeste 30 Sudoeste 0 -- -- 54
2020-09-22 17:00:00 20.4 18 Oeste 31 Oeste 0 -- -- 52
2020-09-22 16:00:00 20.2 5 Oeste 16 Norte 0 -- -- 50
2020-09-22 15:00:00 20 6 Nordeste 16 Nordeste 0 -- -- 48
2020-09-22 14:00:00 19.3 4 Este 11 Norte 0 -- -- 53
2020-09-22 13:00:00 18.7 7 Norte 16 Norte 0 -- -- 55
2020-09-22 12:00:00 16.6 6 Nordeste 12 Norte 0 -- -- 60
2020-09-22 11:00:00 12.9 2 Oeste 11 Sudoeste 0 -- -- 75
2020-09-22 10:00:00 9.6 6 Sudoeste 15 Sudoeste 0 -- -- 89
2020-09-22 09:00:00 6.9 10 Oeste 18 Oeste 0 -- -- 92
2020-09-22 08:00:00 6.2 10 Sudoeste 17 Sudoeste 0 -- -- 91
2020-09-22 07:00:00 6.6 10 Sudoeste 15 Sudoeste 0 -- -- 93
2020-09-22 06:00:00 6.6 8 Sudoeste 13 Sudoeste 0 -- -- 92
2020-09-22 05:00:00 6.9 9 Sudoeste 13 Sudoeste 0 -- -- 91
2020-09-22 04:00:00 7.3 3 Sudoeste 12 Sudoeste 0 -- -- 90
2020-09-22 03:00:00 7.7 8 Sudoeste 12 Oeste 0 -- -- 90
2020-09-22 02:00:00 8.4 7 Sudoeste 12 Sudoeste 0 -- -- 88
2020-09-22 01:00:00 9.2 5 Oeste 10 Sudoeste 0 -- -- 86
2020-09-22 00:00:00 10 9 Sudoeste 12 Sudoeste 0 -- -- 84
2020-09-21 23:00:00 11.8 4 Oeste 9 Sudoeste 0 -- -- 78
2020-09-21 22:00:00 13.4 4 Sudoeste 9 Sudoeste 0 -- -- 68
2020-09-21 21:00:00 15.8 3 Sudoeste 21 Oeste 0 -- -- 61
2020-09-21 20:00:00 18 8 Oeste 17 Sudoeste 0 -- -- 51
2020-09-21 19:00:00 20 11 Oeste 21 Sudoeste 0 -- -- 47
2020-09-21 18:00:00 21.1 9 Noroeste 18 Noroeste 0 -- -- 45
2020-09-21 17:00:00 21.2 8 Noroeste 22 Noroeste 0 -- -- 46
2020-09-21 16:00:00 19.9 6 Nordeste 19 Noroeste 0 -- -- 49
2020-09-21 15:00:00 20.7 9 Norte 17 Norte 0 -- -- 48
2020-09-21 14:00:00 19.8 5 Nordeste 15 Nordeste 0 -- -- 48
2020-09-21 13:00:00 18.4 4 Norte 12 Norte 0 -- -- 56
2020-09-21 12:00:00 16 3 Norte 8 Norte 0 -- -- 63
2020-09-21 11:00:00 12.6 5 Sudoeste 14 Sudoeste 0 -- -- 80
2020-09-21 10:00:00 10.1 8 Sudoeste 15 Sudoeste 0 -- -- 89
2020-09-21 09:00:00 7.5 10 Sudoeste 16 Sudoeste 0 -- -- 93
2020-09-21 08:00:00 6.8 11 Sudoeste 16 Sudoeste 0 -- -- 94
2020-09-21 07:00:00 7.7 10 Oeste 14 Oeste 0 -- -- 93
2020-09-21 06:00:00 8.3 7 Sudoeste 11 Sudoeste 0 -- -- 93
2020-09-21 05:00:00 9.3 6 Oeste 11 Oeste 0 -- -- 93
2020-09-21 04:00:00 9.6 10 Oeste 15 Sudoeste 0 -- -- 91
2020-09-21 03:00:00 10.2 6 Sudoeste 9 Sudoeste 0.2 -- -- 89
2020-09-21 02:00:00 12.4 3 Este 8 Nordeste 0 -- -- 83
2020-09-21 01:00:00 12.9 3 Nordeste 5 Nordeste 0 -- -- 81
2020-09-21 00:00:00 14.1 0 Calma 13 Nordeste 0 -- -- 76
2020-09-20 23:00:00 14.9 8 Este 12 Este 0 -- -- 74
2020-09-20 22:00:00 16.2 6 Noroeste 13 Noroeste 0 -- -- 69
2020-09-20 21:00:00 16.4 5 Oeste 20 Oeste 0 -- -- 67
2020-09-20 20:00:00 17.6 6 Noroeste 21 Oeste 0 -- -- 60
2020-09-20 19:00:00 18.2 6 Noroeste 22 Oeste 0 -- -- 65
2020-09-20 18:00:00 18.4 14 Oeste 25 Oeste 0 -- -- 67
2020-09-20 17:00:00 17.8 15 Oeste 30 Sudoeste 0 -- -- 70
2020-09-20 16:00:00 18.7 18 Oeste 37 Sudoeste 0 -- -- 64
2020-09-20 15:00:00 18.6 21 Oeste 38 Oeste 0 -- -- 71
2020-09-20 14:00:00 18.5 18 Oeste 41 Sudoeste 0 -- -- 72
2020-09-20 13:00:00 16.5 23 Oeste 36 Oeste 0 -- -- 75
2020-09-20 12:00:00 15.7 22 Oeste 34 Sudoeste 0 -- -- 78
2020-09-20 11:00:00 15.5 20 Oeste 30 Oeste 0 -- -- 79
2020-09-20 10:00:00 14.5 17 Sudoeste 30 Sudoeste 0 -- -- 85
2020-09-20 09:00:00 13.8 15 Oeste 27 Oeste 0 -- -- 89
2020-09-20 08:00:00 13.6 9 Sudoeste 28 Sudoeste 0 -- -- 90
2020-09-20 07:00:00 13.9 11 Sudoeste 27 Oeste 0 -- -- 86
2020-09-20 06:00:00 13.9 19 Oeste 35 Oeste 0 -- -- 85
2020-09-20 05:00:00 14 19 Sudoeste 29 Sudoeste 0 -- -- 86
2020-09-20 04:00:00 13.8 11 Sudoeste 24 Sudoeste 0 -- -- 88
2020-09-20 03:00:00 13.7 12 Sudoeste 22 Sudoeste 0 -- -- 88
2020-09-20 02:00:00 13.8 10 Sudoeste 15 Oeste 0 -- -- 88
2020-09-20 01:00:00 13.6 7 Oeste 13 Sudoeste 0 -- -- 88
2020-09-20 00:00:00 13.7 5 Sudoeste 13 Oeste 0 -- -- 88
2020-09-19 23:00:00 13.8 8 Oeste 19 Oeste 0 -- -- 87
2020-09-19 22:00:00 14.1 2 Sudoeste 18 Oeste 0 -- -- 84
2020-09-19 21:00:00 13.8 9 Oeste 22 Oeste 0 -- -- 86
2020-09-19 20:00:00 13.8 14 Sudoeste 29 Oeste 0 -- -- 86
2020-09-19 19:00:00 15 16 Oeste 30 Sudoeste 0 -- -- 79
2020-09-19 18:00:00 14.8 12 Sudoeste 31 Oeste 0 -- -- 75
2020-09-19 17:00:00 14.8 13 Oeste 30 Oeste 0 -- -- 68
2020-09-19 16:00:00 14.7 14 Sudoeste 32 Sudoeste 0 -- -- 82
2020-09-19 15:00:00 14.2 17 Oeste 31 Sudoeste 0.2 -- -- 87
2020-09-19 14:00:00 15.2 13 Oeste 31 Sudoeste 0 -- -- 81
2020-09-19 13:00:00 15.3 18 Sudoeste 30 Sudoeste 0.4 -- -- 85
2020-09-19 12:00:00 13.9 10 Oeste 24 Sudoeste 2.2 -- -- 89
2020-09-19 11:00:00 13.1 7 Sudoeste 15 Oeste 2.2 -- -- 92
2020-09-19 10:00:00 13.3 10 Sudoeste 24 Sudoeste 0 -- -- 88
2020-09-19 09:00:00 13.2 9 Oeste 38 Sudoeste 0 -- -- 87
2020-09-19 08:00:00 12.9 24 Sudoeste 45 Sudoeste 0 -- -- 89
2020-09-19 07:00:00 13.2 25 Sudoeste 46 Oeste 0.4 -- -- 84
2020-09-19 06:00:00 13.2 25 Sudoeste 43 Sudoeste 0.6 -- -- 89
2020-09-19 05:00:00 13.2 24 Sudoeste 51 Sudoeste 1.4 -- -- 88
2020-09-19 04:00:00 12.9 13 Sudoeste 25 Sudoeste 1.2 -- -- 91
2020-09-19 03:00:00 13 11 Sudoeste 28 Sudoeste 1.6 -- -- 90
2020-09-19 02:00:00 13 6 Sudoeste 33 Sur 2.6 -- -- 90
2020-09-19 01:00:00 12.7 8 Sudoeste 21 Sur 0.2 -- -- 90
2020-09-19 00:00:00 12.3 10 Sur 28 Sur 4.6 -- -- 90
2020-09-18 23:00:00 12.1 3 Sudoeste 20 Sur 3.2 -- -- 89
2020-09-18 22:00:00 12.4 15 Sur 23 Sudoeste 1.2 -- -- 83
2020-09-18 21:00:00 12.9 15 Sudoeste 24 Sudoeste 0.8 -- -- 79
2020-09-18 20:00:00 13 17 Sur 32 Sur 0.6 -- -- 81
2020-09-18 19:00:00 15.6 28 Sur 39 Sur 0 -- -- 65
2020-09-18 18:00:00 15.4 13 Sudoeste 26 Sudoeste 0 -- -- 68
2020-09-18 17:00:00 14.1 14 Sur 41 Sudoeste 0.6 -- -- 79
2020-09-18 16:00:00 17.1 8 Sudoeste 31 Sur 0 -- -- 60
2020-09-18 15:00:00 18.3 22 Sur 38 Sudeste 0 -- -- 53
2020-09-18 14:00:00 18.9 20 Sur 41 Sur 0 -- -- 51
2020-09-18 13:00:00 19 15 Sur 34 Sudeste 0 -- -- 53
2020-09-18 12:00:00 18.4 16 Sur 28 Sur 0 -- -- 56
2020-09-18 11:00:00 14.7 11 Sudoeste 22 Sur 0 -- -- 68
2020-09-18 10:00:00 15 9 Sur 17 Sur 0 -- -- 70
2020-09-18 09:00:00 13.1 5 Sur 27 Oeste 0 -- -- 78
2020-09-18 08:00:00 12.7 10 Sudoeste 19 Sur 0.8 -- -- 87
2020-09-18 07:00:00 12.9 5 Noroeste 10 Noroeste 0.2 -- -- 91
2020-09-18 06:00:00 12.6 9 Sudoeste 23 Oeste 3.6 -- -- 89
2020-09-18 05:00:00 13.2 6 Sudoeste 24 Sur 0 -- -- 82
2020-09-18 04:00:00 13.5 14 Sur 48 Sur 0.4 -- -- 75
2020-09-18 03:00:00 14.9 9 Sur 20 Oeste 0 -- -- 83
2020-09-18 02:00:00 15.3 7 Sudoeste 15 Oeste 0 -- -- 81
2020-09-18 01:00:00 15.7 8 Sudoeste 22 Sudoeste 0 -- -- 81
2020-09-18 00:00:00 16.1 13 Sudoeste 26 Sudoeste 0.4 -- -- 79
2020-09-17 23:00:00 16.3 17 Sur 40 Sur 1.8 -- -- 79
2020-09-17 22:00:00 17.5 15 Sudeste 28 Sudeste 0 -- -- 73
2020-09-17 21:00:00 15.5 4 Sudoeste 30 Sudeste 0.2 -- -- 80
2020-09-17 20:00:00 16.2 21 Sur 56 Sudoeste 0 -- -- 76
2020-09-17 19:00:00 20.7 24 Sur 44 Sur 0 -- -- 60
2020-09-17 18:00:00 20.4 22 Sur 40 Sur 0 -- -- 63
2020-09-17 17:00:00 20.1 26 Sur 45 Sur 0 -- -- 65
2020-09-17 16:00:00 21.2 29 Sur 44 Sur 0 -- -- 61
2020-09-17 15:00:00 19.8 25 Sur 49 Sur 0 -- -- 67
2020-09-17 14:00:00 20.8 17 Sur 40 Sur 0 -- -- 58
2020-09-17 13:00:00 20 24 Sudoeste 50 Sudoeste 0 -- -- 58
2020-09-17 12:00:00 20.6 31 Sur 50 Sudoeste 0 -- -- 55
2020-09-17 11:00:00 19.7 22 Sur 40 Sudoeste 0 -- -- 61
2020-09-17 10:00:00 18.5 19 Sur 29 Sur 0 -- -- 63
2020-09-17 09:00:00 17.4 14 Sur 27 Sur 0 -- -- 67
2020-09-17 08:00:00 16.9 13 Sur 21 Sur 0 -- -- 70
2020-09-17 07:00:00 17 13 Sur 19 Sur 0 -- -- 68
2020-09-17 06:00:00 17.3 10 Sur 22 Sur 0 -- -- 64
2020-09-17 05:00:00 17.4 19 Sur 40 Sur 0 -- -- 62
2020-09-17 04:00:00 17.5 13 Sur 19 Sur 0 -- -- 64
2020-09-17 03:00:00 17.9 8 Sur 19 Sur 0 -- -- 62
2020-09-17 02:00:00 17.8 11 Sur 18 Sur 0 -- -- 60
2020-09-17 01:00:00 17.8 9 Sudoeste 17 Sudoeste 0 -- -- 61
2020-09-17 00:00:00 18 8 Sudoeste 14 Oeste 0 -- -- 62
2020-09-16 23:00:00 18.8 9 Oeste 13 Oeste 0 -- -- 56
2020-09-16 22:00:00 19.5 5 Oeste 8 Sur 0 -- -- 50
2020-09-16 21:00:00 21.1 3 Sur 18 Sur 0 -- -- 45
2020-09-16 20:00:00 23 10 Sur 16 Sur 0 -- -- 37
2020-09-16 19:00:00 24.4 8 Sur 21 Sur 0 -- -- 35
2020-09-16 18:00:00 25.3 14 Sudoeste 28 Sudoeste 0 -- -- 31
2020-09-16 17:00:00 26.8 8 Sur 21 Sur 0 -- -- 30
2020-09-16 16:00:00 26.9 7 Sur 21 Sudoeste 0 -- -- 31
2020-09-16 15:00:00 26.8 10 Sur 22 Sur 0 -- -- 34
2020-09-16 14:00:00 25.7 10 Sudoeste 27 Sur 0 -- -- 35
2020-09-16 13:00:00 24.7 16 Sudoeste 28 Sur 0 -- -- 40
2020-09-16 12:00:00 20.3 4 Oeste 9 Este 0 -- -- 61
2020-09-16 11:00:00 17.5 4 Sudoeste 9 Sudoeste 0 -- -- 68
2020-09-16 10:00:00 13.4 6 Sudoeste 15 Oeste 0 -- -- 83
2020-09-16 09:00:00 9.7 8 Sudoeste 15 Sudoeste 0 -- -- 92
2020-09-16 08:00:00 8.2 3 Sur 11 Oeste 0 -- -- 91
2020-09-16 07:00:00 8.7 6 Sudoeste 13 Oeste 0 -- -- 91
2020-09-16 06:00:00 9.2 3 Sudoeste 13 Sudoeste 0 -- -- 90
2020-09-16 05:00:00 8.8 7 Sudoeste 11 Sudoeste 0 -- -- 91
2020-09-16 04:00:00 9.2 5 Sudoeste 9 Oeste 0 -- -- 89
2020-09-16 03:00:00 10 6 Sudoeste 11 Sudoeste 0 -- -- 89
2020-09-16 02:00:00 10.7 5 Sudoeste 12 Oeste 0 -- -- 86
2020-09-16 01:00:00 11.7 6 Sudoeste 10 Oeste 0 -- -- 85
2020-09-16 00:00:00 12.7 5 Oeste 12 Oeste 0 -- -- 82
2020-09-15 23:00:00 14.2 8 Sudoeste 10 Oeste 0 -- -- 77
2020-09-15 22:00:00 15.9 8 Sudoeste 12 Sudoeste 0 -- -- 72
2020-09-15 21:00:00 19 6 Oeste 9 Sudoeste 0 -- -- 59
2020-09-15 20:00:00 21.7 10 Sudoeste 25 Sudoeste 0 -- -- 49
2020-09-15 19:00:00 23.5 13 Sudoeste 27 Sur 0 -- -- 44
2020-09-15 18:00:00 24.2 19 Sur 30 Sur 0 -- -- 38
2020-09-15 17:00:00 24.9 17 Sudoeste 26 Sudoeste 0 -- -- 39
2020-09-15 16:00:00 25 15 Sudoeste 31 Sur 0 -- -- 40
2020-09-15 15:00:00 23.9 19 Sur 29 Sur 0 -- -- 41
2020-09-15 14:00:00 23.3 12 Sudoeste 28 Sur 0 -- -- 48
2020-09-15 13:00:00 22.2 13 Sudoeste 23 Sudoeste 0.2 -- -- 53
2020-09-15 12:00:00 21 16 Sudoeste 24 Oeste 0.2 -- -- 59
2020-09-15 11:00:00 17.5 0 Calma 5 Oeste 0 -- -- 78
2020-09-15 10:00:00 14 4 Sudoeste 10 Sudoeste 0 -- -- 90
2020-09-15 09:00:00 10.8 4 Sudoeste 10 Sudoeste 0 -- -- 96
2020-09-15 08:00:00 10.1 6 Sudoeste 9 Oeste 0 -- -- 95
2020-09-15 07:00:00 10.3 3 Oeste 5 Oeste 0.2 -- -- 95
2020-09-15 06:00:00 10.8 0 Calma 8 Sudoeste 0 -- -- 93
2020-09-15 05:00:00 11.6 5 Sudoeste 9 Sudoeste 0 -- -- 94
2020-09-15 04:00:00 11.9 5 Sudoeste 11 Oeste 0.2 -- -- 93
2020-09-15 03:00:00 12.4 8 Sudoeste 14 Sudoeste 0.2 -- -- 93
2020-09-15 02:00:00 12.9 9 Sudoeste 19 Oeste 0 -- -- 92
2020-09-15 01:00:00 14 9 Sudoeste 15 Sudoeste 0 -- -- 89
2020-09-15 00:00:00 15 5 Oeste 31 Oeste 0.4 -- -- 86
2020-09-14 23:00:00 15.8 10 Noroeste 30 Sur 0.2 -- -- 78
2020-09-14 22:00:00 15.4 13 Sudoeste 37 Sudeste 0.2 -- -- 76
2020-09-14 21:00:00 17.1 16 Sudoeste 44 Sudoeste 0.2 -- -- 68
2020-09-14 20:00:00 24.4 8 Sur 25 Sur 0 -- -- 40
2020-09-14 19:00:00 25.3 19 Sur 37 Sur 0 -- -- 38
2020-09-14 18:00:00 26.6 23 Sur 36 Sur 0 -- -- 36
2020-09-14 17:00:00 26.3 22 Sur 40 Sur 0 -- -- 37
2020-09-14 16:00:00 26.8 20 Sur 39 Sur 0 -- -- 37
2020-09-14 15:00:00 26 23 Sur 36 Sudeste 0 -- -- 38
2020-09-14 14:00:00 25.7 20 Sur 31 Sur 0 -- -- 37
2020-09-14 13:00:00 25.6 21 Sur 39 Sur 0 -- -- 38
2020-09-14 12:00:00 24.2 28 Sur 42 Sur 0 -- -- 39
2020-09-14 11:00:00 20.4 6 Oeste 10 Sudoeste 0 -- -- 53
2020-09-14 10:00:00 18.4 3 Sudoeste 9 Sudoeste 0 -- -- 57
2020-09-14 09:00:00 16.5 3 Oeste 8 Sudoeste 0 -- -- 60
2020-09-14 08:00:00 16.5 3 Sudoeste 9 Oeste 0 -- -- 59
2020-09-14 07:00:00 17 7 Sudoeste 13 Sudoeste 0 -- -- 56
2020-09-14 06:00:00 20.1 4 Oeste 20 Sur 0 -- -- 48
2020-09-14 05:00:00 21.1 12 Sur 24 Sur 0 -- -- 43
2020-09-14 04:00:00 22.4 18 Sur 34 Sur 0 -- -- 39
2020-09-14 03:00:00 23 13 Sur 41 Sudoeste 0 -- -- 37
2020-09-14 02:00:00 23 13 Sudoeste 26 Sudoeste 0 -- -- 37
2020-09-14 01:00:00 18.5 9 Sudoeste 15 Oeste 0 -- -- 51
2020-09-14 00:00:00 17.2 9 Oeste 15 Oeste 0 -- -- 57
2020-09-13 23:00:00 17.9 7 Sudoeste 14 Oeste 0 -- -- 55
2020-09-13 22:00:00 19.9 8 Sudoeste 13 Oeste 0 -- -- 51
2020-09-13 21:00:00 23.6 4 Sudoeste 19 Sudoeste 0 -- -- 37
2020-09-13 20:00:00 25.8 8 Sudoeste 31 Sur 0 -- -- 33
2020-09-13 19:00:00 27.3 19 Sur 32 Sur 0 -- -- 31
2020-09-13 18:00:00 27.8 18 Sudoeste 31 Sudoeste 0 -- -- 31
2020-09-13 17:00:00 27.9 14 Sur 30 Sur 0 -- -- 33
2020-09-13 16:00:00 29.1 20 Sur 31 Sudoeste 0 -- -- 29
2020-09-13 15:00:00 30.6 14 Sur 26 Sur 0 -- -- 26
2020-09-13 14:00:00 29.2 12 Sur 24 Oeste 0 -- -- 28
2020-09-13 13:00:00 29.7 14 Sudoeste 21 Sudoeste 0 -- -- 30
2020-09-13 12:00:00 28.6 12 Sur 21 Sudeste 0 -- -- 32
2020-09-13 11:00:00 24.8 11 Sur 21 Sudeste 0 -- -- 40
2020-09-13 10:00:00 19.3 10 Sudoeste 22 Sudoeste 0 -- -- 50
2020-09-13 09:00:00 15.6 12 Sudoeste 25 Oeste 0 -- -- 58
2020-09-13 08:00:00 14.9 13 Oeste 21 Oeste 0 -- -- 57
2020-09-13 07:00:00 14.1 7 Oeste 13 Sudoeste 0 -- -- 59
2020-09-13 06:00:00 12.6 6 Sudoeste 15 Sudoeste 0 -- -- 64
2020-09-13 05:00:00 13.4 10 Sudoeste 17 Sudoeste 0 -- -- 62
2020-09-13 04:00:00 12.9 9 Sudoeste 21 Oeste 0 -- -- 63
2020-09-13 03:00:00 13.5 12 Sudoeste 18 Sudoeste 0 -- -- 60
2020-09-13 02:00:00 14.5 10 Oeste 17 Sudoeste 0 -- -- 58
2020-09-13 01:00:00 15 12 Sudoeste 18 Sudoeste 0 -- -- 58
2020-09-13 00:00:00 15.2 8 Oeste 14 Oeste 0 -- -- 59
2020-09-12 23:00:00 16.7 10 Oeste 14 Oeste 0 -- -- 56
2020-09-12 22:00:00 18.8 10 Sudoeste 14 Oeste 0 -- -- 52
2020-09-12 21:00:00 22.4 3 Sudoeste 19 Oeste 0 -- -- 41
2020-09-12 20:00:00 26.1 7 Oeste 21 Oeste 0 -- -- 32
2020-09-12 19:00:00 27.8 11 Oeste 17 Oeste 0 -- -- 30
2020-09-12 18:00:00 30.2 5 Nordeste 23 Norte 0 -- -- 22
2020-09-12 17:00:00 30.7 9 Nordeste 29 Norte 0 -- -- 22
2020-09-12 16:00:00 31.3 4 Sudeste 17 Sudoeste 0 -- -- 22
2020-09-12 15:00:00 30.4 9 Sudoeste 19 Oeste 0 -- -- 24
2020-09-12 14:00:00 30.4 4 Norte 14 Oeste 0 -- -- 24
2020-09-12 13:00:00 28.9 5 Nordeste 12 Nordeste 0 -- -- 25
2020-09-12 12:00:00 26.1 4 Oeste 11 Oeste 0 -- -- 30
2020-09-12 11:00:00 22.1 8 Oeste 12 Oeste 0 -- -- 42
2020-09-12 10:00:00 16.8 7 Sudoeste 14 Sur 0 -- -- 54
2020-09-12 09:00:00 12.8 10 Sudoeste 20 Sudoeste 0 -- -- 62
2020-09-12 08:00:00 11 13 Sudoeste 23 Sudoeste 0 -- -- 68
2020-09-12 07:00:00 11.1 13 Sudoeste 21 Oeste 0 -- -- 67
2020-09-12 06:00:00 11.8 11 Sudoeste 19 Sudoeste 0 -- -- 65
2020-09-12 05:00:00 11.2 13 Sudoeste 18 Oeste 0 -- -- 68
2020-09-12 04:00:00 11.3 11 Sudoeste 16 Sudoeste 0 -- -- 67
2020-09-12 03:00:00 11.9 12 Sudoeste 18 Sudoeste 0 -- -- 65
2020-09-12 02:00:00 12.7 11 Sudoeste 15 Sudoeste 0 -- -- 62
2020-09-12 01:00:00 13.5 12 Sudoeste 15 Sudoeste 0 -- -- 59
2020-09-12 00:00:00 14.8 8 Sudoeste 13 Sudoeste 0 -- -- 57
2020-09-11 23:00:00 16.6 4 Sudoeste 15 Oeste 0 -- -- 53
2020-09-11 22:00:00 18.5 9 Sudoeste 14 Sudoeste 0 -- -- 50
2020-09-11 21:00:00 24 6 Norte 12 Noroeste 0 -- -- 30
2020-09-11 20:00:00 26.4 8 Noroeste 14 Noroeste 0 -- -- 27
2020-09-11 19:00:00 27.7 4 Oeste 14 Norte 0 -- -- 26
2020-09-11 18:00:00 28.3 9 Nordeste 24 Noroeste 0 -- -- 25
2020-09-11 17:00:00 28.9 7 Sudoeste 20 Oeste 0 -- -- 26
2020-09-11 16:00:00 27.6 6 Noroeste 32 Noroeste 0 -- -- 27
2020-09-11 15:00:00 27.9 6 Norte 21 Nordeste 0 -- -- 27
2020-09-11 14:00:00 28.5 5 Noroeste 17 Sudoeste 0 -- -- 26
2020-09-11 13:00:00 27.5 4 Oeste 11 Oeste 0 -- -- 27
2020-09-11 12:00:00 25.2 4 Noroeste 13 Oeste 0 -- -- 32
2020-09-11 11:00:00 21.2 8 Oeste 15 Oeste 0 -- -- 42
2020-09-11 10:00:00 16.4 9 Sudoeste 14 Sudoeste 0 -- -- 54
2020-09-11 09:00:00 10 4 Sur 17 Sudoeste 0 -- -- 68
2020-09-11 08:00:00 9.6 9 Sudoeste 23 Sudoeste 0 -- -- 71
2020-09-11 07:00:00 10.6 12 Sudoeste 18 Sudoeste 0 -- -- 66
2020-09-11 06:00:00 9.8 14 Sudoeste 19 Sudoeste 0 -- -- 69
2020-09-11 05:00:00 9.5 12 Oeste 19 Sudoeste 0 -- -- 70
2020-09-11 04:00:00 9.7 13 Sudoeste 24 Sudoeste 0 -- -- 69
2020-09-11 03:00:00 11.8 15 Sudoeste 19 Sudoeste 0 -- -- 61
2020-09-11 02:00:00 11.6 12 Sudoeste 21 Sudoeste 0 -- -- 63
2020-09-11 01:00:00 12.9 9 Sudoeste 15 Sudoeste 0 -- -- 58
2020-09-11 00:00:00 14.2 10 Sudoeste 17 Oeste 0 -- -- 54
2020-09-10 23:00:00 15.7 8 Sudoeste 15 Sudoeste 0 -- -- 50
2020-09-10 22:00:00 18.4 6 Oeste 10 Noroeste 0 -- -- 43
2020-09-10 21:00:00 22.9 4 Norte 13 Noroeste 0 -- -- 31
2020-09-10 20:00:00 26 9 Norte 24 Norte 0 -- -- 27
2020-09-10 19:00:00 27.4 10 Norte 22 Noroeste 0 -- -- 25
2020-09-10 18:00:00 27.4 11 Norte 26 Norte 0 -- -- 24
2020-09-10 17:00:00 27.7 10 Noroeste 25 Norte 0 -- -- 24
2020-09-10 16:00:00 27.8 8 Nordeste 24 Norte 0 -- -- 24
2020-09-10 15:00:00 27.1 14 Noroeste 27 Norte 0 -- -- 26
2020-09-10 14:00:00 26.8 6 Noroeste 25 Norte 0 -- -- 27
2020-09-10 13:00:00 25.6 9 Nordeste 20 Norte 0 -- -- 28
2020-09-10 12:00:00 24.3 3 Noroeste 7 Sudoeste 0 -- -- 32
2020-09-10 11:00:00 19.4 6 Sudoeste 12 Sudoeste 0 -- -- 42
2020-09-10 10:00:00 14.8 8 Sudoeste 18 Sudoeste 0 -- -- 54
2020-09-10 09:00:00 9.5 13 Sudoeste 19 Sudoeste 0 -- -- 68
2020-09-10 08:00:00 7.4 10 Sudoeste 18 Sudoeste 0 -- -- 74
2020-09-10 07:00:00 8 12 Sudoeste 18 Sudoeste 0 -- -- 71
2020-09-10 06:00:00 8.1 11 Sudoeste 18 Oeste 0 -- -- 71
2020-09-10 05:00:00 9.2 16 Sudoeste 22 Sudoeste 0 -- -- 67
2020-09-10 04:00:00 9 11 Oeste 18 Sudoeste 0 -- -- 68
2020-09-10 03:00:00 10.4 11 Sudoeste 19 Sudoeste 0 -- -- 63
2020-09-10 02:00:00 11.1 10 Sudoeste 15 Sudoeste 0 -- -- 60
2020-09-10 01:00:00 12.2 10 Oeste 14 Sudoeste 0 -- -- 57
2020-09-10 00:00:00 12.8 10 Sudoeste 15 Sudoeste 0 -- -- 56
2020-09-09 23:00:00 15.2 6 Sudoeste 15 Sudoeste 0 -- -- 51
2020-09-09 22:00:00 18 5 Sudoeste 9 Sudoeste 0 -- -- 45
2020-09-09 21:00:00 22.9 4 Noroeste 12 Norte 0 -- -- 28
2020-09-09 20:00:00 25.8 8 Norte 23 Noroeste 0 -- -- 23
2020-09-09 19:00:00 27 9 Norte 20 Noroeste 0 -- -- 22
2020-09-09 18:00:00 27.5 8 Norte 25 Noroeste 0 -- -- 21
2020-09-09 17:00:00 27.6 9 Noroeste 30 Norte 0 -- -- 22
2020-09-09 16:00:00 26.9 10 Norte 24 Noroeste 0 -- -- 22
2020-09-09 15:00:00 26.7 12 Noroeste 22 Noroeste 0 -- -- 23
2020-09-09 14:00:00 26 4 Norte 23 Norte 0 -- -- 25
2020-09-09 13:00:00 24.8 4 Sudoeste 11 Sudoeste 0 -- -- 26
2020-09-09 12:00:00 23 3 Norte 8 Oeste 0 -- -- 30
2020-09-09 11:00:00 19.4 4 Oeste 12 Sudoeste 0 -- -- 44
2020-09-09 10:00:00 15 12 Sudoeste 24 Sudoeste 0 -- -- 55
2020-09-09 09:00:00 9.8 13 Sudoeste 20 Sudoeste 0 -- -- 67
2020-09-09 08:00:00 8.6 12 Oeste 18 Oeste 0 -- -- 71
2020-09-09 07:00:00 8.3 11 Sudoeste 18 Sudoeste 0 -- -- 72
2020-09-09 06:00:00 8.9 12 Sudoeste 17 Sudoeste 0 -- -- 69
2020-09-09 05:00:00 8.1 11 Sudoeste 17 Sudoeste 0 -- -- 73
2020-09-09 04:00:00 9.4 11 Sudoeste 22 Sudoeste 0 -- -- 68
2020-09-09 03:00:00 9.4 13 Sudoeste 21 Sudoeste 0 -- -- 69
2020-09-09 02:00:00 10.7 14 Sudoeste 20 Sudoeste 0 -- -- 64
2020-09-09 01:00:00 11.4 12 Sudoeste 23 Sudoeste 0 -- -- 64
2020-09-09 00:00:00 15 15 Sudoeste 23 Sudoeste 0 -- -- 52
2020-09-08 23:00:00 15.6 9 Oeste 20 Sudoeste 0 -- -- 50
2020-09-08 22:00:00 17.2 8 Oeste 13 Oeste 0 -- -- 51
2020-09-08 21:00:00 20.4 6 Oeste 17 Oeste 0 -- -- 45
2020-09-08 20:00:00 23.5 8 Oeste 20 Sudoeste 0 -- -- 38
2020-09-08 19:00:00 25.9 9 Noroeste 16 Noroeste 0 -- -- 25
2020-09-08 18:00:00 25.8 8 Noroeste 17 Noroeste 0 -- -- 25
2020-09-08 17:00:00 25.5 11 Norte 23 Noroeste 0 -- -- 25
2020-09-08 16:00:00 25 10 Norte 23 Norte 0 -- -- 26
2020-09-08 15:00:00 24.2 10 Norte 21 Norte 0 -- -- 27
2020-09-08 14:00:00 22.7 12 Norte 21 Norte 0 -- -- 29
2020-09-08 13:00:00 21.5 11 Norte 21 Norte 0 -- -- 30
2020-09-08 12:00:00 20.3 4 Nordeste 21 Sudoeste 0 -- -- 35
2020-09-08 11:00:00 16.8 13 Sudoeste 17 Sudoeste 0 -- -- 43
2020-09-08 10:00:00 11.1 4 Este 8 Este 0 -- -- 55
2020-09-08 09:00:00 6.3 4 Sudoeste 13 Sudoeste 0 -- -- 74
2020-09-08 08:00:00 2.9 4 Sudoeste 9 Oeste 0 -- -- 80
2020-09-08 07:00:00 4.4 6 Sudoeste 15 Oeste 0 -- -- 80
2020-09-08 06:00:00 5.2 8 Sudoeste 17 Sudoeste 0 -- -- 79
2020-09-08 05:00:00 6.1 12 Sudoeste 17 Sudoeste 0 -- -- 76
2020-09-08 04:00:00 6.1 4 Sudeste 12 Sudoeste 0 -- -- 73
2020-09-08 03:00:00 7.3 4 Sudoeste 12 Sudoeste 0 -- -- 72
2020-09-08 02:00:00 8.9 8 Sudoeste 13 Oeste 0 -- -- 68
2020-09-08 01:00:00 10.9 10 Sudoeste 21 Sudoeste 0 -- -- 61
2020-09-08 00:00:00 11.9 12 Sudoeste 15 Sudoeste 0 -- -- 56
2020-09-07 23:00:00 16 6 Sudeste 19 Norte 0 -- -- 43
2020-09-07 22:00:00 18.6 9 Norte 21 Noroeste 0 -- -- 38
2020-09-07 21:00:00 20 10 Norte 24 Norte 0 -- -- 35
2020-09-07 20:00:00 22.7 11 Norte 24 Noroeste 0 -- -- 29
2020-09-07 19:00:00 24.2 13 Norte 31 Norte 0 -- -- 25
2020-09-07 18:00:00 25.1 12 Norte 29 Norte 0 -- -- 24
2020-09-07 17:00:00 25.1 12 Norte 29 Norte 0 -- -- 23
2020-09-07 16:00:00 24.8 14 Norte 24 Norte 0 -- -- 23
2020-09-07 15:00:00 24 13 Norte 30 Norte 0 -- -- 29
2020-09-07 14:00:00 23.4 10 Nordeste 26 Norte 0 -- -- 31
2020-09-07 13:00:00 21.6 13 Norte 23 Norte 0 -- -- 33
2020-09-07 12:00:00 19.1 9 Norte 20 Norte 0 -- -- 43
2020-09-07 11:00:00 16.2 8 Nordeste 14 Nordeste 0 -- -- 55
2020-09-07 10:00:00 12.6 3 Este 6 Sudoeste 0 -- -- 69
2020-09-07 09:00:00 8.3 3 Sudoeste 5 Sudoeste 0 -- -- 87
2020-09-07 08:00:00 6.5 0 Calma 6 Oeste 0 -- -- 86
2020-09-07 07:00:00 7.7 5 Oeste 7 Sudoeste 0 -- -- 88
2020-09-07 06:00:00 8.7 0 Calma 8 Sudoeste 0 -- -- 84
2020-09-07 05:00:00 9.3 4 Sudeste 10 Este 0 -- -- 82
2020-09-07 04:00:00 10.4 0 Calma 6 Sudoeste 0 -- -- 80
2020-09-07 03:00:00 12 0 Calma 13 Oeste 0 -- -- 71
2020-09-07 02:00:00 13.3 9 Sudoeste 13 Sudoeste 0 -- -- 71
2020-09-07 01:00:00 14.7 9 Sudoeste 14 Sudoeste 0 -- -- 65
2020-09-07 00:00:00 16.1 8 Oeste 11 Oeste 0 -- -- 62
2020-09-06 23:00:00 18.5 5 Oeste 14 Norte 0 -- -- 53
2020-09-06 22:00:00 22.1 2 Norte 8 Noroeste 0 -- -- 40
2020-09-06 21:00:00 24.9 5 Norte 19 Noroeste 0 -- -- 35
2020-09-06 20:00:00 27.5 8 Norte 23 Norte 0 -- -- 30
2020-09-06 19:00:00 29.1 10 Norte 24 Norte 0 -- -- 27
2020-09-06 18:00:00 29.2 13 Norte 28 Norte 0 -- -- 28
2020-09-06 17:00:00 29.4 11 Norte 27 Norte 0 -- -- 27
2020-09-06 16:00:00 29.5 13 Norte 29 Norte 0 -- -- 29
2020-09-06 15:00:00 29 12 Norte 27 Norte 0 -- -- 31
2020-09-06 14:00:00 28.5 10 Norte 22 Norte 0 -- -- 31
2020-09-06 13:00:00 27 13 Norte 20 Norte 0 -- -- 32
2020-09-06 12:00:00 24 8 Norte 14 Norte 0 -- -- 37
2020-09-06 11:00:00 20.5 4 Norte 10 Noroeste 0 -- -- 47
2020-09-06 10:00:00 17.1 5 Nordeste 23 Sudoeste 0 -- -- 52
2020-09-06 09:00:00 13.9 15 Sudoeste 27 Sudoeste 0 -- -- 61
2020-09-06 08:00:00 13.4 17 Sudoeste 26 Sudoeste 0 -- -- 62
2020-09-06 07:00:00 13.5 13 Sudoeste 29 Oeste 0 -- -- 62
2020-09-06 06:00:00 12.7 14 Sudoeste 19 Oeste 0 -- -- 65
2020-09-06 05:00:00 10.9 0 Calma 8 Oeste 0 -- -- 70
2020-09-06 04:00:00 13.1 2 Sudoeste 18 Sudoeste 0 -- -- 60
2020-09-06 03:00:00 13.8 8 Sudoeste 18 Sudoeste 0 -- -- 64
2020-09-06 02:00:00 14.3 10 Oeste 17 Sudoeste 0 -- -- 63
2020-09-06 01:00:00 15.4 5 Sudoeste 15 Oeste 0 -- -- 60
2020-09-06 00:00:00 17 9 Sudoeste 13 Sudoeste 0 -- -- 57
2020-09-05 23:00:00 18.9 8 Sudoeste 13 Sudoeste 0 -- -- 51
2020-09-05 22:00:00 21.7 5 Sudoeste 18 Sudoeste 0 -- -- 42
2020-09-05 21:00:00 25.2 11 Oeste 20 Oeste 0 -- -- 35
2020-09-05 20:00:00 28 8 Oeste 25 Oeste 0 -- -- 31
2020-09-05 19:00:00 30.3 12 Oeste 18 Oeste 0 -- -- 28
2020-09-05 18:00:00 31.1 7 Sudeste 24 Norte 0 -- -- 23
2020-09-05 17:00:00 31.3 8 Norte 27 Norte 0 -- -- 22
2020-09-05 16:00:00 31.3 10 Norte 27 Norte 0 -- -- 21
2020-09-05 15:00:00 31.2 10 Oeste 21 Oeste 0 -- -- 21
2020-09-05 14:00:00 30.1 6 Norte 16 Sudoeste 0 -- -- 23
2020-09-05 13:00:00 28.8 7 Sudoeste 14 Norte 0 -- -- 24
2020-09-05 12:00:00 26.7 4 Noroeste 9 Norte 0 -- -- 31
2020-09-05 11:00:00 22 6 Sudoeste 14 Sudoeste 0 -- -- 42
2020-09-05 10:00:00 17.2 10 Sudoeste 18 Sudoeste 0 -- -- 55
2020-09-05 09:00:00 12.4 12 Sudoeste 19 Sudoeste 0 -- -- 67
2020-09-05 08:00:00 10 11 Sudoeste 18 Sudoeste 0 -- -- 76
2020-09-05 07:00:00 10.4 12 Oeste 19 Sudoeste 0 -- -- 75
2020-09-05 06:00:00 10.7 11 Sudoeste 14 Sudoeste 0 -- -- 75
2020-09-05 05:00:00 11.5 5 Oeste 18 Sudoeste 0 -- -- 73
2020-09-05 04:00:00 12.3 10 Sudoeste 14 Sudoeste 0 -- -- 70
2020-09-05 03:00:00 14.2 8 Oeste 14 Sudoeste 0 -- -- 63
2020-09-05 02:00:00 15.1 6 Oeste 15 Sur 0 -- -- 60
2020-09-05 01:00:00 15.2 11 Sudoeste 19 Sudoeste 0 -- -- 61
2020-09-05 00:00:00 16.6 12 Sudoeste 15 Sudoeste 0 -- -- 57
2020-09-04 23:00:00 18 7 Sudoeste 12 Sudoeste 0 -- -- 55
2020-09-04 22:00:00 20.7 6 Sudoeste 10 Oeste 0 -- -- 48
2020-09-04 21:00:00 24.5 3 Sudoeste 18 Oeste 0 -- -- 39
2020-09-04 20:00:00 27.5 12 Oeste 26 Sudoeste 0 -- -- 33
2020-09-04 19:00:00 29 15 Sudoeste 27 Sudoeste 0 -- -- 30
2020-09-04 18:00:00 30 13 Sudoeste 26 Sudoeste 0 -- -- 29
2020-09-04 17:00:00 31.4 11 Sudoeste 29 Sudoeste 0 -- -- 27
2020-09-04 16:00:00 31.9 6 Nordeste 17 Oeste 0 -- -- 21
2020-09-04 15:00:00 31 4 Sudeste 15 Sur 0 -- -- 21
2020-09-04 14:00:00 30.2 6 Norte 15 Oeste 0 -- -- 21
2020-09-04 13:00:00 28.9 5 Oeste 14 Oeste 0 -- -- 23
2020-09-04 12:00:00 27.2 6 Oeste 14 Oeste 0 -- -- 26
2020-09-04 11:00:00 23.2 9 Oeste 17 Sudoeste 0 -- -- 37
2020-09-04 10:00:00 18.2 11 Sudoeste 18 Sudoeste 0 -- -- 48
2020-09-04 09:00:00 14 14 Sudoeste 22 Sudoeste 0 -- -- 55
2020-09-04 08:00:00 11.6 11 Sudoeste 20 Sudoeste 0 -- -- 61
2020-09-04 07:00:00 10.6 12 Sudoeste 19 Sudoeste 0 -- -- 65
2020-09-04 06:00:00 11 10 Sudoeste 17 Oeste 0 -- -- 64
2020-09-04 05:00:00 11 13 Sudoeste 18 Sudoeste 0 -- -- 64
2020-09-04 04:00:00 11.7 13 Oeste 19 Oeste 0 -- -- 62
2020-09-04 03:00:00 12.5 12 Oeste 16 Sudoeste 0 -- -- 60
2020-09-04 02:00:00 12.8 9 Sudoeste 20 Sudoeste 0 -- -- 60
2020-09-04 01:00:00 14.1 12 Sudoeste 18 Sudoeste 0 -- -- 56
2020-09-04 00:00:00 15.4 13 Sudoeste 17 Sudoeste 0 -- -- 53
2020-09-03 23:00:00 17.4 11 Oeste 15 Oeste 0 -- -- 48
2020-09-03 22:00:00 20.7 6 Sudoeste 17 Noroeste 0 -- -- 38
2020-09-03 21:00:00 24.7 7 Noroeste 21 Oeste 0 -- -- 30
2020-09-03 20:00:00 27.8 9 Noroeste 22 Oeste 0 -- -- 27
2020-09-03 19:00:00 29.9 9 Noroeste 17 Oeste 0 -- -- 20
2020-09-03 18:00:00 30.4 9 Noroeste 21 Noroeste 0 -- -- 19
2020-09-03 17:00:00 30.5 9 Noroeste 24 Norte 0 -- -- 19
2020-09-03 16:00:00 30 7 Noroeste 23 Norte 0 -- -- 20
2020-09-03 15:00:00 28.9 10 Oeste 23 Este 0 -- -- 21
2020-09-03 14:00:00 28.6 9 Noroeste 18 Norte 0 -- -- 21
2020-09-03 13:00:00 27.8 6 Nordeste 14 Oeste 0 -- -- 24
2020-09-03 12:00:00 25.5 3 Norte 8 Oeste 0 -- -- 27
2020-09-03 11:00:00 21.2 5 Oeste 16 Sudoeste 0 -- -- 38
2020-09-03 10:00:00 15.9 9 Sudoeste 17 Sudoeste 0 -- -- 51
2020-09-03 09:00:00 10.5 10 Sudoeste 21 Sudoeste 0 -- -- 64
2020-09-03 08:00:00 7.4 11 Sudoeste 18 Oeste 0 -- -- 73
2020-09-03 07:00:00 8.1 10 Sudoeste 19 Sudoeste 0 -- -- 69
2020-09-03 06:00:00 8.4 12 Sudoeste 23 Sudoeste 0 -- -- 67
2020-09-03 05:00:00 9.8 12 Sudoeste 19 Sudoeste 0 -- -- 61
2020-09-03 04:00:00 8.9 11 Oeste 16 Sudoeste 0 -- -- 65
2020-09-03 03:00:00 9.8 12 Sudoeste 20 Sudoeste 0 -- -- 60
2020-09-03 02:00:00 10 12 Sudoeste 15 Oeste 0 -- -- 60
2020-09-03 01:00:00 10.7 9 Sudoeste 14 Oeste 0 -- -- 59
2020-09-03 00:00:00 12.7 9 Sudoeste 13 Sudoeste 0 -- -- 52
2020-09-02 23:00:00 14.8 7 Sudoeste 15 Sudoeste 0 -- -- 46
2020-09-02 22:00:00 17.8 9 Sudoeste 13 Oeste 0 -- -- 39
2020-09-02 21:00:00 23 4 Norte 19 Norte 0 -- -- 25
2020-09-02 20:00:00 25.8 7 Norte 22 Norte 0 -- -- 22
2020-09-02 19:00:00 26.8 9 Norte 21 Norte 0 -- -- 22
2020-09-02 18:00:00 27.4 10 Norte 26 Norte 0 -- -- 22
2020-09-02 17:00:00 27.6 6 Noroeste 24 Norte 0 -- -- 22
2020-09-02 16:00:00 27.3 12 Norte 25 Nordeste 0 -- -- 23
2020-09-02 15:00:00 26.9 9 Norte 20 Norte 0 -- -- 21
2020-09-02 14:00:00 25.8 6 Norte 25 Norte 0 -- -- 23
2020-09-02 13:00:00 24.9 8 Noroeste 19 Oeste 0 -- -- 24
2020-09-02 12:00:00 23 6 Nordeste 12 Nordeste 0 -- -- 27
2020-09-02 11:00:00 18.6 6 Oeste 15 Sudoeste 0 -- -- 36
2020-09-02 10:00:00 13.3 7 Sudoeste 14 Sudoeste 0 -- -- 50
2020-09-02 09:00:00 7.8 9 Oeste 15 Oeste 0 -- -- 65
2020-09-02 08:00:00 5.6 9 Sudoeste 16 Sudoeste 0 -- -- 71
2020-09-02 07:00:00 6 12 Sudoeste 16 Sudoeste 0 -- -- 70
2020-09-02 06:00:00 6.1 7 Sudoeste 15 Sudoeste 0 -- -- 69
2020-09-02 05:00:00 6.7 9 Sudoeste 15 Sudoeste 0 -- -- 68
2020-09-02 04:00:00 8.3 13 Sudoeste 19 Sudoeste 0 -- -- 61
2020-09-02 03:00:00 7.8 9 Oeste 17 Oeste 0 -- -- 65
2020-09-02 02:00:00 8.7 11 Oeste 15 Oeste 0 -- -- 62
2020-09-02 01:00:00 10.3 9 Oeste 15 Sudoeste 0 -- -- 56
2020-09-02 00:00:00 11.6 10 Sudoeste 14 Sudoeste 0 -- -- 51
2020-09-01 23:00:00 13.4 7 Sudoeste 14 Oeste 0 -- -- 49
2020-09-01 22:00:00 16.8 6 Oeste 9 Oeste 0 -- -- 40
2020-09-01 21:00:00 21.7 5 Norte 15 Norte 0 -- -- 24
2020-09-01 20:00:00 24 9 Nordeste 23 Nordeste 0 -- -- 21
2020-09-01 19:00:00 25.3 7 Nordeste 27 Nordeste 0 -- -- 21
2020-09-01 18:00:00 24.4 11 Nordeste 21 Nordeste 0 -- -- 22
2020-09-01 17:00:00 24.9 8 Norte 22 Noroeste 0 -- -- 22
2020-09-01 16:00:00 25.1 9 Norte 29 Oeste 0 -- -- 21
2020-09-01 15:00:00 25.3 12 Noroeste 23 Oeste 0 -- -- 21
2020-09-01 14:00:00 24.8 10 Norte 23 Norte 0 -- -- 22
2020-09-01 13:00:00 24.1 6 Sur 14 Sur 0 -- -- 25
2020-09-01 12:00:00 21.4 4 Norte 10 Nordeste 0 -- -- 29
2020-09-01 11:00:00 19.4 2 Nordeste 12 Oeste 0 -- -- 36
2020-09-01 10:00:00 15.4 6 Sudoeste 16 Sudoeste 0 -- -- 45
2020-09-01 09:00:00 9.8 9 Sudoeste 13 Sudoeste 0 -- -- 63
2020-09-01 08:00:00 10.2 6 Sudoeste 17 Oeste 0 -- -- 60
2020-09-01 07:00:00 9.7 3 Sudoeste 12 Sudoeste 0 -- -- 63
2020-09-01 06:00:00 9.3 5 Sudoeste 11 Oeste 0 -- -- 65
2020-09-01 05:00:00 9.8 4 Sudoeste 15 Sudoeste 0 -- -- 60
2020-09-01 04:00:00 9.4 13 Sudoeste 17 Oeste 0 -- -- 60
2020-09-01 03:00:00 9.7 8 Oeste 19 Sudoeste 0 -- -- 57
2020-09-01 02:00:00 9.5 9 Oeste 15 Oeste 0 -- -- 58
2020-09-01 01:00:00 9.2 9 Sudoeste 12 Sudoeste 0 -- -- 62
2020-09-01 00:00:00 10.6 8 Oeste 12 Oeste 0 -- -- 60
2020-08-31 23:00:00 12.3 5 Oeste 12 Sudoeste 0 -- -- 54
2020-08-31 22:00:00 14.6 5 Sudoeste 14 Sudoeste 0 -- -- 49
2020-08-31 21:00:00 18.9 6 Sudoeste 9 Sudoeste 0 -- -- 36
2020-08-31 20:00:00 22.6 6 Noroeste 16 Noroeste 0 -- -- 24
2020-08-31 19:00:00 23.2 9 Noroeste 18 Norte 0 -- -- 25
2020-08-31 18:00:00 23.4 9 Noroeste 17 Norte 0 -- -- 26
2020-08-31 17:00:00 23.4 7 Noroeste 15 Nordeste 0 -- -- 27
2020-08-31 16:00:00 22.9 8 Oeste 17 Oeste 0 -- -- 27
2020-08-31 15:00:00 22.2 8 Sudoeste 22 Sudoeste 0 -- -- 28
2020-08-31 14:00:00 22.1 12 Oeste 23 Sudoeste 0 -- -- 29
2020-08-31 13:00:00 21.4 6 Sudoeste 19 Sudoeste 0 -- -- 27
2020-08-31 12:00:00 19 8 Oeste 14 Oeste 0 -- -- 35
2020-08-31 11:00:00 16.3 8 Oeste 13 Oeste 0 -- -- 39
2020-08-31 10:00:00 11.4 9 Sudoeste 21 Sudoeste 0 -- -- 55
2020-08-31 09:00:00 5.6 15 Sudoeste 25 Sudoeste 0 -- -- 72
2020-08-31 08:00:00 4.5 15 Sudoeste 23 Sudoeste 0 -- -- 73
2020-08-31 07:00:00 4.2 13 Oeste 22 Sudoeste 0 -- -- 74
2020-08-31 06:00:00 5.2 11 Sudoeste 20 Sudoeste 0 -- -- 70
2020-08-31 05:00:00 4.6 10 Sudoeste 15 Sudoeste 0 -- -- 73
2020-08-31 04:00:00 5.1 13 Sudoeste 24 Sudoeste 0 -- -- 71
2020-08-31 03:00:00 6 12 Oeste 24 Sudoeste 0 -- -- 69
2020-08-31 02:00:00 6.4 13 Sudoeste 19 Oeste 0 -- -- 67
2020-08-31 01:00:00 7.1 13 Oeste 19 Oeste 0 -- -- 66
2020-08-31 00:00:00 8.1 10 Sudoeste 14 Sudoeste 0 -- -- 62
2020-08-30 23:00:00 9.9 2 Oeste 8 Oeste 0 -- -- 54
2020-08-30 22:00:00 14.5 4 Norte 12 Norte 0 -- -- 39
2020-08-30 21:00:00 16.2 10 Norte 23 Nordeste 0 -- -- 35
2020-08-30 20:00:00 18.3 12 Norte 25 Norte 0 -- -- 32
2020-08-30 19:00:00 19.5 12 Norte 24 Noroeste 0 -- -- 30
2020-08-30 18:00:00 20.3 13 Norte 29 Norte 0 -- -- 29
2020-08-30 17:00:00 20.6 10 Noroeste 24 Norte 0 -- -- 28
2020-08-30 16:00:00 20.5 10 Noroeste 25 Norte 0 -- -- 29
2020-08-30 15:00:00 19.5 13 Noroeste 29 Norte 0 -- -- 32
2020-08-30 14:00:00 19.3 4 Nordeste 19 Noroeste 0 -- -- 33
2020-08-30 13:00:00 18 5 Norte 17 Norte 0 -- -- 35
2020-08-30 12:00:00 15.7 9 Norte 19 Norte 0 -- -- 46
2020-08-30 11:00:00 13.7 5 Norte 13 Norte 0 -- -- 57
2020-08-30 10:00:00 9.9 3 Sudoeste 15 Norte 0 -- -- 67
2020-08-30 09:00:00 6.1 3 Sudeste 15 Sudoeste 0 -- -- 79
2020-08-30 08:00:00 4.1 9 Oeste 13 Sudoeste 0 -- -- 89
2020-08-30 07:00:00 4.1 3 Sudoeste 13 Sudoeste 0 -- -- 85
2020-08-30 06:00:00 4.5 4 Sudoeste 8 Sudoeste 0 -- -- 86
2020-08-30 05:00:00 6 6 Sudoeste 10 Sudoeste 0 -- -- 82
2020-08-30 04:00:00 7.3 5 Sudoeste 7 Sudoeste 0 -- -- 78
2020-08-30 03:00:00 8.9 5 Sur 7 Sur 0 -- -- 68
2020-08-30 02:00:00 11.6 3 Sur 18 Noroeste 0 -- -- 60
2020-08-30 01:00:00 13.4 11 Norte 20 Norte 0 -- -- 55
2020-08-30 00:00:00 14.2 8 Norte 20 Nordeste 0 -- -- 53
2020-08-29 23:00:00 14.3 6 Este 24 Nordeste 0 -- -- 55
2020-08-29 22:00:00 15.1 5 Norte 15 Nordeste 0 -- -- 44
2020-08-29 21:00:00 16.6 10 Nordeste 23 Nordeste 0 -- -- 40
2020-08-29 20:00:00 17.7 10 Norte 27 Norte 0 -- -- 36
2020-08-29 19:00:00 18.4 13 Norte 33 Norte 0 -- -- 36
2020-08-29 18:00:00 20 13 Norte 30 Nordeste 0 -- -- 34
2020-08-29 17:00:00 18.9 9 Nordeste 31 Norte 0 -- -- 36
2020-08-29 16:00:00 18.5 14 Nordeste 30 Noroeste 0 -- -- 35
2020-08-29 15:00:00 17.9 11 Nordeste 25 Nordeste 0 -- -- 38
2020-08-29 14:00:00 16.4 10 Norte 24 Nordeste 0 -- -- 44
2020-08-29 13:00:00 15.3 8 Norte 19 Nordeste 0 -- -- 48
2020-08-29 12:00:00 13.6 9 Norte 20 Nordeste 0 -- -- 53
2020-08-29 11:00:00 13.3 9 Norte 18 Este 0 -- -- 53
2020-08-29 10:00:00 13.7 8 Este 18 Noroeste 0 -- -- 54
2020-08-29 09:00:00 10.7 5 Nordeste 13 Norte 0 -- -- 66
2020-08-29 08:00:00 9.4 4 Nordeste 7 Nordeste 0 -- -- 70
2020-08-29 07:00:00 9.3 3 Este 9 Norte 0 -- -- 68
2020-08-29 06:00:00 10.4 2 Nordeste 14 Norte 0 -- -- 64
2020-08-29 05:00:00 11.3 9 Nordeste 25 Nordeste 0 -- -- 60
2020-08-29 04:00:00 12 8 Norte 20 Norte 0 -- -- 58
2020-08-29 03:00:00 12.5 9 Norte 18 Noroeste 0 -- -- 56
2020-08-29 02:00:00 13.8 7 Norte 20 Norte 0 -- -- 52
2020-08-29 01:00:00 14.6 3 Nordeste 16 Nordeste 0 -- -- 51
2020-08-29 00:00:00 16 6 Norte 19 Norte 0 -- -- 45
2020-08-28 23:00:00 17.2 8 Norte 17 Norte 0 -- -- 42
2020-08-28 22:00:00 18.6 8 Norte 21 Noroeste 0 -- -- 36
2020-08-28 21:00:00 20.4 8 Norte 27 Noroeste 0 -- -- 28
2020-08-28 20:00:00 22.8 12 Norte 32 Noroeste 0 -- -- 20
2020-08-28 19:00:00 24.7 15 Norte 33 Noroeste 0 -- -- 23
2020-08-28 18:00:00 26.4 14 Noroeste 37 Noroeste 0 -- -- 24
2020-08-28 17:00:00 26.3 18 Norte 32 Noroeste 0 -- -- 24
2020-08-28 16:00:00 26.1 14 Norte 29 Noroeste 0 -- -- 28
2020-08-28 15:00:00 25.3 12 Norte 31 Noroeste 0 -- -- 29
2020-08-28 14:00:00 24.7 10 Norte 27 Norte 0 -- -- 39
2020-08-28 13:00:00 23.1 6 Nordeste 15 Norte 0 -- -- 45
2020-08-28 12:00:00 20.7 8 Norte 20 Norte 0 -- -- 56
2020-08-28 11:00:00 19.2 11 Norte 24 Norte 0 -- -- 68
2020-08-28 10:00:00 17.6 6 Nordeste 11 Nordeste 0 -- -- 74
2020-08-28 09:00:00 13.8 2 Sur 6 Oeste 0 -- -- 83
2020-08-28 08:00:00 11.9 5 Sudeste 8 Noroeste 0 -- -- 87
2020-08-28 07:00:00 12.8 5 Oeste 8 Nordeste 0 -- -- 84
2020-08-28 06:00:00 12.8 5 Este 8 Nordeste 0 -- -- 81
2020-08-28 05:00:00 12.8 4 Este 6 Este 0 -- -- 75
2020-08-28 04:00:00 14.5 3 Oeste 6 Sudoeste 0 -- -- 73
2020-08-28 03:00:00 15.6 5 Sudoeste 8 Sudoeste 0 -- -- 68
2020-08-28 02:00:00 17 0 Calma 5 Este 0 -- -- 60
2020-08-28 01:00:00 17.7 3 Este 7 Este 0 -- -- 51
2020-08-28 00:00:00 19.4 0 Calma 4 Sudoeste 0 -- -- 48
2020-08-27 23:00:00 22.6 2 Este 8 Norte 0 -- -- 39
2020-08-27 22:00:00 26.3 5 Norte 25 Noroeste 0 -- -- 33
2020-08-27 21:00:00 28.3 13 Noroeste 29 Noroeste 0 -- -- 31
2020-08-27 20:00:00 31.4 12 Noroeste 27 Noroeste 0 -- -- 29
2020-08-27 19:00:00 32.7 8 Noroeste 22 Norte 0 -- -- 25
2020-08-27 18:00:00 33.1 7 Norte 20 Norte 0 -- -- 24
2020-08-27 17:00:00 33 9 Noroeste 26 Oeste 0 -- -- 23
2020-08-27 16:00:00 32.2 15 Noroeste 24 Noroeste 0 -- -- 24
2020-08-27 15:00:00 32.3 5 Norte 16 Noroeste 0 -- -- 27
2020-08-27 14:00:00 30.8 10 Norte 20 Norte 0 -- -- 29
2020-08-27 13:00:00 29.3 8 Norte 17 Norte 0 -- -- 33
2020-08-27 12:00:00 26.9 7 Nordeste 12 Nordeste 0 -- -- 37
2020-08-27 11:00:00 22.7 3 Sudoeste 8 Oeste 0 -- -- 42
2020-08-27 10:00:00 18.1 4 Sudoeste 8 Sudoeste 0 -- -- 54
2020-08-27 09:00:00 13.2 2 Sudoeste 15 Sudoeste 0 -- -- 67
2020-08-27 08:00:00 12 8 Sudoeste 17 Sudoeste 0 -- -- 68
2020-08-27 07:00:00 11.2 8 Sudoeste 16 Oeste 0 -- -- 72
2020-08-27 06:00:00 12.1 9 Sudoeste 18 Sudoeste 0 -- -- 67
2020-08-27 05:00:00 12 8 Sudoeste 13 Oeste 0 -- -- 68
2020-08-27 04:00:00 12.1 5 Sudoeste 12 Sudoeste 0 -- -- 67
2020-08-27 03:00:00 13.3 8 Sudoeste 12 Sudoeste 0 -- -- 64
2020-08-27 02:00:00 14.3 7 Sudoeste 14 Sudoeste 0 -- -- 58
2020-08-27 01:00:00 15.2 8 Sudoeste 15 Oeste 0 -- -- 56
2020-08-27 00:00:00 17.1 9 Oeste 14 Oeste 0 -- -- 50
2020-08-26 23:00:00 19.1 6 Oeste 10 Oeste 0 -- -- 48
2020-08-26 22:00:00 22.4 6 Este 18 Sudoeste 0 -- -- 36
2020-08-26 21:00:00 27.1 11 Oeste 16 Sudoeste 0 -- -- 28
2020-08-26 20:00:00 30.5 11 Oeste 22 Oeste 0 -- -- 23
2020-08-26 19:00:00 32.4 12 Oeste 28 Norte 0 -- -- 20
2020-08-26 18:00:00 33 10 Oeste 26 Oeste 0 -- -- 20
2020-08-26 17:00:00 33.3 13 Oeste 24 Oeste 0 -- -- 20
2020-08-26 16:00:00 33.2 12 Sudoeste 21 Sudoeste 0 -- -- 22
2020-08-26 15:00:00 32.2 13 Oeste 22 Sudoeste 0 -- -- 22
2020-08-26 14:00:00 31.8 10 Oeste 26 Sudoeste 0 -- -- 24
2020-08-26 13:00:00 31 6 Oeste 19 Norte 0 -- -- 24
2020-08-26 12:00:00 29.3 6 Norte 14 Nordeste 0 -- -- 28
2020-08-26 11:00:00 24.2 4 Sudoeste 10 Sudoeste 0 -- -- 36
2020-08-26 10:00:00 18.9 5 Sudoeste 15 Sudoeste 0 -- -- 49
2020-08-26 09:00:00 13.8 8 Oeste 19 Sudoeste 0 -- -- 57
2020-08-26 08:00:00 10.9 14 Sudoeste 20 Sudoeste 0 -- -- 64
2020-08-26 07:00:00 11.7 13 Sudoeste 22 Sudoeste 0 -- -- 60
2020-08-26 06:00:00 11.2 12 Sudoeste 17 Sur 0 -- -- 61
2020-08-26 05:00:00 12 10 Sudoeste 17 Sudoeste 0 -- -- 58
2020-08-26 04:00:00 11.9 9 Oeste 15 Sudoeste 0 -- -- 60
2020-08-26 03:00:00 12.5 9 Oeste 13 Oeste 0 -- -- 60
2020-08-26 02:00:00 13.4 7 Sudoeste 17 Sudoeste 0 -- -- 61
2020-08-26 01:00:00 15.5 10 Oeste 15 Sudoeste 0 -- -- 55
2020-08-26 00:00:00 17.1 6 Sudoeste 9 Sudoeste 0 -- -- 52
2020-08-25 23:00:00 20.1 6 Oeste 10 Noroeste 0 -- -- 42
2020-08-25 22:00:00 22.3 7 Sudoeste 21 Oeste 0 -- -- 36
2020-08-25 21:00:00 26.1 13 Oeste 22 Oeste 0 -- -- 29
2020-08-25 20:00:00 29.5 15 Oeste 28 Oeste 0 -- -- 26
2020-08-25 19:00:00 31.2 15 Oeste 26 Sudoeste 0 -- -- 20
2020-08-25 18:00:00 31.6 17 Sudoeste 30 Sudoeste 0 -- -- 22
2020-08-25 17:00:00 32 17 Sudoeste 31 Sudoeste 0 -- -- 23
2020-08-25 16:00:00 31.7 18 Oeste 29 Sudoeste 0 -- -- 22
2020-08-25 15:00:00 31.9 17 Sudoeste 31 Sudoeste 0 -- -- 22
2020-08-25 14:00:00 31 19 Oeste 35 Oeste 0 -- -- 23
2020-08-25 13:00:00 30.1 22 Sudoeste 34 Sudoeste 0 -- -- 21
2020-08-25 12:00:00 28.2 8 Norte 14 Norte 0 -- -- 28
2020-08-25 11:00:00 24.1 4 Oeste 11 Sudoeste 0 -- -- 41
2020-08-25 10:00:00 19 0 Calma 14 Sudoeste 0 -- -- 50
2020-08-25 09:00:00 13.1 11 Sudoeste 18 Sudoeste 0 -- -- 64
2020-08-25 08:00:00 10.6 14 Sudoeste 20 Sudoeste 0 -- -- 71
2020-08-25 07:00:00 11.1 11 Oeste 20 Sudoeste 0 -- -- 70
2020-08-25 06:00:00 11.8 13 Sudoeste 20 Sudoeste 0 -- -- 68
2020-08-25 05:00:00 11.5 12 Sudoeste 19 Sudoeste 0 -- -- 71
2020-08-25 04:00:00 12.2 13 Sudoeste 22 Sudoeste 0 -- -- 68
2020-08-25 03:00:00 13.4 11 Sudoeste 18 Sudoeste 0 -- -- 64
2020-08-25 02:00:00 13.9 12 Oeste 21 Sudoeste 0 -- -- 64
2020-08-25 01:00:00 14.8 10 Oeste 14 Sudoeste 0 -- -- 61
2020-08-25 00:00:00 16.1 10 Oeste 15 Sudoeste 0 -- -- 59
2020-08-24 23:00:00 18.7 9 Oeste 13 Oeste 0 -- -- 52
2020-08-24 22:00:00 21.3 4 Sudoeste 10 Oeste 0 -- -- 45
2020-08-24 21:00:00 26.8 4 Oeste 19 Noroeste 0 -- -- 34
2020-08-24 20:00:00 29.2 9 Oeste 17 Oeste 0 -- -- 27
2020-08-24 19:00:00 31.6 8 Noroeste 19 Norte 0 -- -- 21
2020-08-24 18:00:00 31.5 8 Nordeste 21 Nordeste 0 -- -- 22
2020-08-24 17:00:00 31.1 7 Norte 24 Norte 0 -- -- 23
2020-08-24 16:00:00 31.1 10 Nordeste 26 Nordeste 0 -- -- 22
2020-08-24 15:00:00 30.6 8 Norte 22 Noroeste 0 -- -- 23
2020-08-24 14:00:00 30 8 Norte 20 Nordeste 0 -- -- 23
2020-08-24 13:00:00 28.2 6 Nordeste 12 Norte 0 -- -- 24
2020-08-24 12:00:00 25.6 5 Norte 9 Norte 0 -- -- 28
2020-08-24 11:00:00 21.7 2 Sudoeste 9 Oeste 0 -- -- 39
2020-08-24 10:00:00 17.1 5 Oeste 14 Sudoeste 0 -- -- 48
2020-08-24 09:00:00 12.5 6 Sudoeste 19 Oeste 0 -- -- 62
2020-08-24 08:00:00 8.6 12 Sudoeste 21 Sudoeste 0 -- -- 74
2020-08-24 07:00:00 9.3 10 Sudoeste 17 Sudoeste 0 -- -- 70
2020-08-24 06:00:00 9.3 9 Sudoeste 14 Sudoeste 0 -- -- 70
2020-08-24 05:00:00 10 7 Sudoeste 20 Sudoeste 0 -- -- 68
2020-08-24 04:00:00 12.4 13 Sudoeste 23 Sur 0 -- -- 57
2020-08-24 03:00:00 12.3 9 Oeste 13 Sudoeste 0 -- -- 59
2020-08-24 02:00:00 12.3 10 Sudoeste 13 Sudoeste 0 -- -- 61
2020-08-24 01:00:00 13.4 8 Oeste 12 Sudoeste 0 -- -- 59
2020-08-24 00:00:00 15.3 8 Oeste 12 Oeste 0 -- -- 54